Time;durP1;ratioP1;P1;durP2;ratioP2;P2;SDS_P1;SDS_P2;PMS_P1;PMS_P2;Temp;Humidity;BMP_temperature;BMP_pressure;BME280_temperature;BME280_humidity;BME280_pressure;Samples;Min_cycle;Max_cycle;Signal;HPM_P1;HPM_P2
2022/10/02 00:02:46;;;;;;;0.20;0.20;;;23.10;66.40;;;;;;6106556;28;21320;-55
2022/10/02 00:05:57;;;;;;;0.20;0.15;;;23.40;66.60;;;;;;6115775;28;20043;-54
2022/10/02 00:09:02;;;;;;;0.25;0.10;;;23.30;66.60;;;;;;6108344;28;20152;-56
2022/10/02 00:12:07;;;;;;;0.60;0.30;;;23.30;66.70;;;;;;6110270;28;20056;-55
2022/10/02 00:15:16;;;;;;;0.50;0.20;;;23.10;66.40;;;;;;6113711;28;20903;-51
2022/10/02 00:18:22;;;;;;;0.30;0.20;;;23.10;66.40;;;;;;6132502;28;20125;-54
2022/10/02 00:21:43;;;;;;;0.30;0.20;;;23.10;66.40;;;;;;6115994;28;20895;-56
2022/10/02 00:24:49;;;;;;;0.40;0.20;;;23.30;66.50;;;;;;6109585;28;20566;-52
2022/10/02 00:28:07;;;;;;;0.45;0.25;;;23.20;66.50;;;;;;6107374;28;21713;-52
2022/10/02 00:31:27;;;;;;;0.43;0.20;;;23.60;66.80;;;;;;6095955;28;20050;-55
2022/10/02 00:34:38;;;;;;;0.25;0.20;;;23.20;67.20;;;;;;6111285;28;20151;-56
2022/10/02 00:37:47;;;;;;;0.20;0.20;;;23.00;66.50;;;;;;6110786;28;20099;-57
2022/10/02 00:41:11;;;;;;;0.30;0.20;;;23.40;66.60;;;;;;6112071;28;20047;-55
2022/10/02 00:44:29;;;;;;;0.57;0.20;;;23.20;66.60;;;;;;6109531;28;20053;-56
2022/10/02 00:47:42;;;;;;;0.40;0.20;;;22.90;66.30;;;;;;6114577;28;20487;-51
2022/10/02 00:50:52;;;;;;;0.38;0.20;;;23.10;66.40;;;;;;6105765;28;20814;-50
2022/10/02 00:54:08;;;;;;;0.10;0.10;;;23.40;66.60;;;;;;6120171;28;20050;-51
2022/10/02 00:57:17;;;;;;;0.30;0.20;;;23.20;66.40;;;;;;6115028;28;20043;-55
2022/10/02 01:00:21;;;;;;;0.40;0.30;;;23.00;66.30;;;;;;6109183;28;20047;-55
2022/10/02 01:03:25;;;;;;;0.28;0.28;;;23.30;66.50;;;;;;6109122;28;20047;-53
2022/10/02 01:06:27;;;;;;;0.30;0.30;;;23.30;66.50;;;;;;6111284;28;20166;-52
2022/10/02 01:09:30;;;;;;;0.30;0.30;;;23.20;67.10;;;;;;6111026;28;20071;-55
2022/10/02 01:12:31;;;;;;;0.60;0.30;;;23.20;67.20;;;;;;6110544;28;20035;-56
2022/10/02 01:15:35;;;;;;;;;;;23.20;66.60;;;;;;6106949;28;20162;-52
2022/10/02 01:18:37;;;;;;;0.30;0.20;;;23.40;66.80;;;;;;6105618;28;19973;-56
2022/10/02 01:21:44;;;;;;;0.30;0.30;;;22.70;66.20;;;;;;6112134;28;20260;-56
2022/10/02 01:24:48;;;;;;;0.40;0.20;;;22.70;66.30;;;;;;6109784;28;20162;-51
2022/10/02 01:27:51;;;;;;;0.25;0.20;;;22.80;66.30;;;;;;6111356;28;20157;-55
2022/10/02 01:30:59;;;;;;;0.55;0.32;;;23.20;66.70;;;;;;6109780;28;20806;-53
2022/10/02 01:34:01;;;;;;;0.20;0.20;;;22.70;66.30;;;;;;6107043;28;20165;-56
2022/10/02 01:37:02;;;;;;;0.63;0.20;;;22.80;66.40;;;;;;6112817;28;20904;-56
2022/10/02 01:40:06;;;;;;;;;;;23.00;66.60;;;;;;6112019;28;20996;-54
2022/10/02 01:43:11;;;;;;;0.45;0.20;;;23.20;66.70;;;;;;6107822;28;19930;-56
2022/10/02 01:46:27;;;;;;;0.30;0.30;;;23.00;66.60;;;;;;6111211;28;20078;-56
2022/10/02 01:49:50;;;;;;;0.52;0.28;;;23.10;81.20;;;;;;6106016;28;20042;-52
2022/10/02 01:53:02;;;;;;;0.43;0.20;;;23.20;66.80;;;;;;6096466;28;20344;-51
2022/10/02 01:56:14;;;;;;;0.65;0.25;;;22.70;66.50;;;;;;6102121;28;20327;-55
2022/10/02 01:59:27;;;;;;;0.40;0.20;;;23.20;66.90;;;;;;6097444;28;20042;-50
2022/10/02 02:02:42;;;;;;;0.63;0.38;;;23.20;66.80;;;;;;6104031;28;20051;-52
2022/10/02 02:05:49;;;;;;;0.75;0.20;;;23.00;66.70;;;;;;6100172;28;20820;-54
2022/10/02 02:08:59;;;;;;;0.30;0.20;;;23.30;66.90;;;;;;6101671;28;20079;-51
2022/10/02 02:12:11;;;;;;;0.75;0.20;;;23.20;66.80;;;;;;6105412;28;21081;-50
2022/10/02 02:15:22;;;;;;;1.13;0.30;;;23.10;66.70;;;;;;6095092;28;20553;-51
2022/10/02 02:18:28;;;;;;;0.50;0.28;;;22.90;66.60;;;;;;6088978;28;20047;-49
2022/10/02 02:21:32;;;;;;;0.57;0.20;;;23.10;66.70;;;;;;6110709;28;20051;-50
2022/10/02 02:24:39;;;;;;;0.73;0.22;;;22.80;66.50;;;;;;6097839;28;20090;-53
2022/10/02 02:27:46;;;;;;;0.40;0.30;;;23.10;66.70;;;;;;6087347;28;20050;-51
2022/10/02 02:30:50;;;;;;;0.50;0.30;;;22.90;66.50;;;;;;6095967;28;20492;-51
2022/10/02 02:33:57;;;;;;;0.30;0.30;;;23.00;66.50;;;;;;6097204;28;20078;-54
2022/10/02 02:37:04;;;;;;;0.70;0.38;;;23.10;66.60;;;;;;6094728;28;20100;-49
2022/10/02 02:40:09;;;;;;;0.40;0.20;;;23.40;66.70;;;;;;6093909;28;20468;-53
2022/10/02 02:43:14;;;;;;;0.40;0.30;;;23.30;66.60;;;;;;6097547;28;20212;-52
2022/10/02 02:46:22;;;;;;;0.50;0.30;;;22.60;66.20;;;;;;6090109;28;20648;-56
2022/10/02 02:49:26;;;;;;;0.88;0.40;;;22.80;80.80;;;;;;6096994;28;20811;-52
2022/10/02 02:52:32;;;;;;;0.60;0.30;;;23.10;66.50;;;;;;6104266;28;21113;-52
2022/10/02 02:55:37;;;;;;;0.75;0.30;;;23.10;66.50;;;;;;6105187;28;20251;-53
2022/10/02 02:58:50;;;;;;;0.73;0.40;;;22.90;66.30;;;;;;6104639;28;20059;-54
2022/10/02 03:01:52;;;;;;;0.43;0.30;;;22.80;66.30;;;;;;6095448;28;20047;-49
2022/10/02 03:04:54;;;;;;;1.55;0.60;;;23.00;66.50;;;;;;6096261;28;20069;-49
2022/10/02 03:07:58;;;;;;;1.13;0.40;;;22.90;66.40;;;;;;6100143;28;20192;-51
2022/10/02 03:11:09;;;;;;;1.60;0.32;;;22.60;66.20;;;;;;6115256;28;21074;-53
2022/10/02 03:14:32;;;;;;;0.40;0.22;;;23.00;66.40;;;;;;6101719;28;20358;-50
2022/10/02 03:17:47;;;;;;;0.55;0.30;;;22.30;66.00;;;;;;6100543;28;20621;-51
2022/10/02 03:21:01;;;;;;;0.43;0.30;;;23.00;66.40;;;;;;6104177;28;20070;-51
2022/10/02 03:24:08;;;;;;;0.98;0.40;;;22.60;66.20;;;;;;6101472;28;20110;-51
2022/10/02 03:27:15;;;;;;;0.70;0.32;;;23.00;66.40;;;;;;6101194;28;20118;-52
2022/10/02 03:30:19;;;;;;;0.38;0.30;;;22.60;66.20;;;;;;6102449;28;20043;-51
2022/10/02 03:33:22;;;;;;;0.60;0.40;;;22.90;66.50;;;;;;6102631;28;20819;-50
2022/10/02 03:36:24;;;;;;;0.80;0.30;;;22.80;66.40;;;;;;6099439;28;20592;-55
2022/10/02 03:39:25;;;;;;;0.77;0.45;;;23.30;66.80;;;;;;6098750;28;20144;-51
2022/10/02 03:42:31;;;;;;;0.90;0.40;;;22.50;66.40;;;;;;6098279;28;20673;-50
2022/10/02 03:45:33;;;;;;;1.10;0.40;;;22.90;66.50;;;;;;6098242;28;20174;-53
2022/10/02 03:48:51;;;;;;;0.75;0.40;;;22.60;66.50;;;;;;6097614;28;21200;-50
2022/10/02 03:51:53;;;;;;;;;;;22.70;66.70;;;;;;6099432;28;20039;-49
2022/10/02 03:54:56;;;;;;;0.85;0.30;;;23.00;67.00;;;;;;6097988;28;19938;-52
2022/10/02 03:58:01;;;;;;;1.02;0.32;;;22.70;66.50;;;;;;6097128;28;20065;-50
2022/10/02 04:01:09;;;;;;;0.80;0.50;;;22.70;66.70;;;;;;6096558;28;20335;-52
2022/10/02 04:04:16;;;;;;;0.47;0.40;;;22.60;66.80;;;;;;6095495;28;21076;-51
2022/10/02 04:07:24;;;;;;;0.60;0.30;;;22.80;67.00;;;;;;6103829;28;20494;-50
2022/10/02 04:10:31;;;;;;;0.63;0.32;;;22.70;67.00;;;;;;6096959;28;20642;-51
2022/10/02 04:13:37;;;;;;;0.65;0.35;;;22.90;67.30;;;;;;6100045;28;20530;-56
2022/10/02 04:16:45;;;;;;;0.68;0.40;;;22.80;67.20;;;;;;6101290;28;20521;-49
2022/10/02 04:19:50;;;;;;;0.40;0.30;;;23.00;67.50;;;;;;6097043;28;20518;-51
2022/10/02 04:22:57;;;;;;;0.88;0.30;;;22.60;67.40;;;;;;6094379;28;20639;-49
2022/10/02 04:26:04;;;;;;;0.77;0.40;;;22.80;67.60;;;;;;6097927;28;20354;-52
2022/10/02 04:29:15;;;;;;;1.23;0.47;;;22.50;67.50;;;;;;6095457;28;20538;-52
2022/10/02 04:32:25;;;;;;;0.40;0.20;;;22.80;67.90;;;;;;6095029;28;20230;-50
2022/10/02 04:35:34;;;;;;;0.40;0.30;;;22.90;68.00;;;;;;6097937;28;20327;-53
2022/10/02 04:38:58;;;;;;;0.30;0.30;;;23.00;68.10;;;;;;6099882;28;20406;-49
2022/10/02 04:42:14;;;;;;;0.43;0.30;;;22.80;68.20;;;;;;6103930;28;20161;-50
2022/10/02 04:45:31;;;;;;;0.68;0.20;;;22.50;68.00;;;;;;6103901;28;20051;-51
2022/10/02 04:48:57;;;;;;;0.50;0.20;;;22.70;68.20;;;;;;6091508;28;20237;-49
2022/10/02 04:52:08;;;;;;;0.57;0.28;;;22.50;68.20;;;;;;6098766;28;20050;-50
2022/10/02 04:55:30;;;;;;;0.55;0.20;;;22.70;68.30;;;;;;6095240;28;20624;-54
2022/10/02 04:58:48;;;;;;;0.20;0.20;;;22.90;68.40;;;;;;6095739;28;20661;-53
2022/10/02 05:02:01;;;;;;;0.30;0.20;;;22.70;68.30;;;;;;6094941;28;20082;-53
2022/10/02 05:05:13;;;;;;;0.45;0.30;;;22.60;68.10;;;;;;6088235;28;20042;-54
2022/10/02 05:08:37;;;;;;;0.40;0.20;;;22.80;68.20;;;;;;6097689;28;20078;-50
2022/10/02 05:11:56;;;;;;;0.20;0.20;;;22.90;68.30;;;;;;6097681;28;20081;-56
2022/10/02 05:15:13;;;;;;;0.40;0.30;;;22.70;68.10;;;;;;6095334;28;20039;-52
2022/10/02 05:18:33;;;;;;;0.17;0.17;;;22.70;68.00;;;;;;6093800;28;20145;-54
2022/10/02 05:21:58;;;;;;;0.30;0.20;;;22.80;68.00;;;;;;6090414;28;20579;-51
2022/10/02 05:25:20;;;;;;;0.38;0.20;;;22.90;68.00;;;;;;6096941;28;20674;-52
2022/10/02 05:28:36;;;;;;;0.43;0.20;;;22.70;67.90;;;;;;6096839;28;20086;-49
2022/10/02 05:31:55;;;;;;;0.30;0.22;;;22.90;68.00;;;;;;6099872;28;20548;-56
2022/10/02 05:35:11;;;;;;;0.20;0.20;;;22.60;67.70;;;;;;6096325;28;20109;-52
2022/10/02 05:38:28;;;;;;;0.38;0.20;;;22.50;67.60;;;;;;6091483;28;20133;-51
2022/10/02 05:41:41;;;;;;;0.52;0.38;;;22.90;67.70;;;;;;6095286;28;20105;-52
2022/10/02 05:44:49;;;;;;;0.25;0.20;;;22.90;67.60;;;;;;6098293;28;20145;-51
2022/10/02 05:47:55;;;;;;;0.40;0.20;;;22.90;67.60;;;;;;6096514;28;20166;-55
2022/10/02 05:51:01;;;;;;;0.20;0.20;;;22.70;67.40;;;;;;6095459;28;20073;-52
2022/10/02 05:54:09;;;;;;;0.35;0.30;;;22.50;67.20;;;;;;6097150;28;20621;-50
2022/10/02 05:57:17;;;;;;;0.25;0.20;;;22.80;67.40;;;;;;6097026;28;20059;-52
2022/10/02 06:00:27;;;;;;;0.28;0.20;;;22.70;67.30;;;;;;6081927;28;20532;-53
2022/10/02 06:03:37;;;;;;;0.20;0.20;;;22.70;67.20;;;;;;6094830;28;20479;-56
2022/10/02 06:06:44;;;;;;;0.63;0.22;;;22.80;67.20;;;;;;6092770;28;21921;-51
2022/10/02 06:09:51;;;;;;;0.38;0.22;;;22.90;67.20;;;;;;6092133;28;20322;-51
2022/10/02 06:12:57;;;;;;;0.30;0.20;;;22.90;67.20;;;;;;6091158;28;21106;-49
2022/10/02 06:16:08;;;;;;;0.30;0.30;;;22.50;66.90;;;;;;6095877;28;20761;-53
2022/10/02 06:19:13;;;;;;;0.55;0.20;;;22.70;67.00;;;;;;6103071;28;20094;-49
2022/10/02 06:22:18;;;;;;;0.22;0.13;;;22.60;67.00;;;;;;6100837;28;20142;-54
2022/10/02 06:25:26;;;;;;;0.25;0.17;;;22.80;67.00;;;;;;6103749;28;20212;-54
2022/10/02 06:28:35;;;;;;;0.38;0.30;;;22.80;66.90;;;;;;6095936;28;21916;-51
2022/10/02 06:31:42;;;;;;;0.40;0.20;;;23.10;67.00;;;;;;6104714;28;20280;-51
2022/10/02 06:34:45;;;;;;;0.60;0.30;;;22.50;66.70;;;;;;6091386;28;20157;-52
2022/10/02 06:38:00;;;;;;;0.28;0.20;;;22.90;66.90;;;;;;6095865;28;20227;-52
2022/10/02 06:41:12;;;;;;;0.63;0.22;;;22.40;66.60;;;;;;6103034;28;20095;-52
2022/10/02 06:44:20;;;;;;;0.47;0.38;;;23.00;66.90;;;;;;6101746;28;20637;-52
2022/10/02 06:47:34;;;;;;;0.60;0.30;;;22.90;66.80;;;;;;6096605;28;20772;-55
2022/10/02 06:50:46;;;;;;;0.50;0.30;;;22.60;66.60;;;;;;6098157;28;20837;-51
2022/10/02 06:54:02;;;;;;;0.68;0.20;;;22.60;66.70;;;;;;6101791;28;20437;-53
2022/10/02 06:57:21;;;;;;;0.38;0.30;;;22.90;66.90;;;;;;6105086;28;20449;-54
2022/10/02 07:00:22;;;;;;;0.22;0.20;;;23.10;66.90;;;;;;6109683;28;20323;-54
2022/10/02 07:03:40;;;;;;;0.43;0.20;;;22.60;66.70;;;;;;6096457;28;20448;-50
2022/10/02 07:06:56;;;;;;;0.38;0.30;;;22.50;66.60;;;;;;6101305;28;20690;-53
2022/10/02 07:10:13;;;;;;;0.85;0.30;;;22.60;66.50;;;;;;6101265;28;20343;-49
2022/10/02 07:13:29;;;;;;;0.52;0.20;;;22.90;66.70;;;;;;6095782;28;20122;-51
2022/10/02 07:16:42;;;;;;;0.10;0.10;;;22.90;66.70;;;;;;6099190;28;20199;-53
2022/10/02 07:20:02;;;;;;;0.30;0.20;;;22.90;66.70;;;;;;6093416;28;20129;-52
2022/10/02 07:23:20;;;;;;;5.03;0.30;;;22.80;66.70;;;;;;6094607;28;20530;-51
2022/10/02 07:26:43;;;;;;;0.80;0.25;;;22.90;66.70;;;;;;6092620;28;20455;-51
2022/10/02 07:29:54;;;;;;;0.45;0.22;;;22.90;66.70;;;;;;6097735;28;20898;-51
2022/10/02 07:33:02;;;;;;;0.70;0.20;;;22.90;66.60;;;;;;6095129;28;20567;-53
2022/10/02 07:36:11;;;;;;;0.40;0.30;;;23.20;66.90;;;;;;6092995;28;20606;-53
2022/10/02 07:39:27;;;;;;;0.52;0.30;;;22.80;66.50;;;;;;6090534;28;20365;-52
2022/10/02 07:42:44;;;;;;;0.47;0.30;;;23.10;66.70;;;;;;6095559;28;20150;-48
2022/10/02 07:45:55;;;;;;;0.60;0.30;;;23.30;66.80;;;;;;6097537;28;20151;-56
2022/10/02 07:49:08;;;;;;;0.25;0.20;;;23.00;66.70;;;;;;6100210;28;20047;-50
2022/10/02 07:52:21;;;;;;;0.55;0.28;;;23.20;66.80;;;;;;6099121;28;20432;-51
2022/10/02 07:55:23;;;;;;;0.20;0.20;;;23.00;66.60;;;;;;6098851;28;20433;-54
2022/10/02 07:58:34;;;;;;;0.10;0.10;;;23.20;66.70;;;;;;6097843;28;20294;-50
2022/10/02 08:01:39;;;;;;;0.32;0.13;;;22.90;66.60;;;;;;6100954;28;20627;-52
2022/10/02 08:04:41;;;;;;;0.85;0.30;;;22.80;66.50;;;;;;6094257;28;20083;-51
2022/10/02 08:07:45;;;;;;;0.40;0.20;;;23.00;66.60;;;;;;6092497;28;20153;-51
2022/10/02 08:10:51;;;;;;;0.47;0.30;;;23.30;66.70;;;;;;6089664;28;20188;-53
2022/10/02 08:13:58;;;;;;;0.38;0.20;;;23.20;66.90;;;;;;6093915;28;20315;-54
2022/10/02 08:17:09;;;;;;;0.50;0.20;;;23.10;66.60;;;;;;6094839;28;20059;-53
2022/10/02 08:20:17;;;;;;;0.38;0.22;;;22.70;66.30;;;;;;6092934;28;20199;-53
2022/10/02 08:23:22;;;;;;;0.20;0.20;;;23.00;66.50;;;;;;6091290;28;20508;-52
2022/10/02 08:26:30;;;;;;;0.60;0.20;;;23.20;66.60;;;;;;6100234;28;20161;-53
2022/10/02 08:29:41;;;;;;;0.95;0.40;;;23.20;66.50;;;;;;6095284;28;20042;-54
2022/10/02 08:32:46;;;;;;;0.45;0.38;;;23.30;66.50;;;;;;6096385;28;20086;-52
2022/10/02 08:36:03;;;;;;;0.50;0.20;;;23.40;66.60;;;;;;6096132;28;20939;-53
2022/10/02 08:39:23;;;;;;;0.55;0.40;;;23.30;66.50;;;;;;6090700;28;20185;-50
2022/10/02 08:42:48;;;;;;;0.77;0.45;;;23.10;66.30;;;;;;6091958;28;20054;-52
2022/10/02 08:46:10;;;;;;;0.60;0.30;;;23.10;66.30;;;;;;6097658;28;20336;-53
2022/10/02 08:49:32;;;;;;;;;;;23.40;66.40;;;;;;6100402;28;20951;-52
2022/10/02 08:53:03;;;;;;;0.50;0.30;;;23.20;66.30;;;;;;6096415;28;20798;-53
2022/10/02 08:56:16;;;;;;;0.90;0.30;;;23.30;66.20;;;;;;6085459;28;20093;-55
2022/10/02 08:59:51;;;;;;;0.40;0.20;;;22.70;65.80;;;;;;6085766;28;20294;-54
2022/10/02 09:03:08;;;;;;;;;;;23.10;66.00;;;;;;6090525;28;20246;-52
2022/10/02 09:06:37;;;;;;;0.40;0.30;;;23.20;66.00;;;;;;6089215;28;20495;-54
2022/10/02 09:10:08;;;;;;;0.22;0.20;;;23.10;65.90;;;;;;6093137;28;20073;-51
2022/10/02 09:13:41;;;;;;;0.57;0.28;;;23.00;65.90;;;;;;6086888;28;20177;-50
2022/10/02 09:17:08;;;;;;;0.55;0.25;;;23.10;66.00;;;;;;6099695;28;20419;-51
2022/10/02 09:20:36;;;;;;;0.30;0.20;;;23.40;66.20;;;;;;6102726;28;20122;-49
2022/10/02 09:23:59;;;;;;;0.68;0.30;;;23.30;66.10;;;;;;6101697;28;20047;-53
2022/10/02 09:27:32;;;;;;;1.27;0.50;;;23.30;66.10;;;;;;6097478;28;20050;-56
2022/10/02 09:30:53;;;;;;;1.00;0.30;;;22.80;65.80;;;;;;6092101;28;20307;-54
2022/10/02 09:34:11;;;;;;;0.40;0.22;;;23.20;66.00;;;;;;6093248;28;20485;-52
2022/10/02 09:37:39;;;;;;;1.00;0.30;;;23.50;66.10;;;;;;6093705;28;20455;-52
2022/10/02 09:41:09;;;;;;;0.70;0.20;;;23.30;66.00;;;;;;6094058;28;20292;-53
2022/10/02 09:44:38;;;;;;;0.80;0.30;;;23.20;65.90;;;;;;6107505;28;20158;-49
2022/10/02 09:48:07;;;;;;;0.63;0.40;;;23.60;66.00;;;;;;6086656;28;20391;-49
2022/10/02 09:51:46;;;;;;;0.70;0.28;;;23.00;65.70;;;;;;6096963;28;20853;-52
2022/10/02 09:55:18;;;;;;;0.30;0.30;;;23.30;65.80;;;;;;6091553;28;20495;-54
2022/10/02 09:58:48;;;;;;;0.57;0.20;;;23.40;65.90;;;;;;6093352;28;20450;-51
2022/10/02 10:02:14;;;;;;;0.77;0.25;;;23.60;66.00;;;;;;6088010;28;20586;-53
2022/10/02 10:05:40;;;;;;;0.85;0.30;;;23.20;65.70;;;;;;6090037;28;20806;-52
2022/10/02 10:09:05;;;;;;;0.40;0.30;;;23.50;65.90;;;;;;6088020;28;20137;-50
2022/10/02 10:12:34;;;;;;;0.60;0.30;;;23.10;65.50;;;;;;6095643;28;20756;-52
2022/10/02 10:16:01;;;;;;;0.75;0.30;;;23.20;65.40;;;;;;6096949;28;20050;-53
2022/10/02 10:19:28;;;;;;;0.73;0.20;;;23.00;65.20;;;;;;6092193;28;20415;-51
2022/10/02 10:22:56;;;;;;;0.20;0.20;;;23.20;65.20;;;;;;6104503;28;20093;-51
2022/10/02 10:26:14;;;;;;;1.38;0.32;;;23.10;65.00;;;;;;6092710;28;20327;-51
2022/10/02 10:29:44;;;;;;;0.70;0.32;;;23.50;65.20;;;;;;6090468;28;20775;-54
2022/10/02 10:33:23;;;;;;;0.20;0.20;;;23.50;65.10;;;;;;6095194;28;20465;-52
2022/10/02 10:40:15;;;;;;;0.28;0.20;;;23.30;64.70;;;;;;6091475;28;20053;-51
2022/10/02 10:43:40;;;;;;;0.90;0.30;;;23.50;64.70;;;;;;6090228;28;20808;-53
2022/10/02 10:47:01;;;;;;;0.50;0.25;;;23.50;64.50;;;;;;6090653;28;20845;-53
2022/10/02 10:50:34;;;;;;;0.40;0.20;;;23.30;64.30;;;;;;6091934;28;20136;-54
2022/10/02 10:53:55;;;;;;;0.95;0.15;;;23.20;64.00;;;;;;6092351;28;20632;-50
2022/10/02 10:57:17;;;;;;;0.52;0.30;;;23.60;64.10;;;;;;6088990;28;20039;-54
2022/10/02 11:00:21;;;;;;;1.17;0.40;;;23.50;63.90;;;;;;6097086;28;20367;-54
2022/10/02 11:03:43;;;;;;;0.30;0.20;;;23.10;63.60;;;;;;6079696;28;20346;-51
2022/10/02 11:07:06;;;;;;;0.60;0.30;;;23.40;63.40;;;;;;6098345;28;20349;-54
2022/10/02 11:10:19;;;;;;;0.60;0.30;;;23.50;63.30;;;;;;6100951;28;20059;-54
2022/10/02 11:13:36;;;;;;;1.33;0.30;;;23.30;63.00;;;;;;6096961;28;20681;-52
2022/10/02 11:17:07;;;;;;;0.40;0.22;;;23.30;62.90;;;;;;6096656;28;20070;-53
2022/10/02 11:20:33;;;;;;;0.65;0.25;;;23.20;62.60;;;;;;6098149;28;20438;-53
2022/10/02 11:23:53;;;;;;;0.50;0.30;;;23.60;62.60;;;;;;6094230;28;20558;-53
2022/10/02 11:27:11;;;;;;;1.67;0.40;;;23.50;62.30;;;;;;6099070;28;20817;-52
2022/10/02 11:30:21;;;;;;;1.30;0.55;;;23.70;62.30;;;;;;6095565;28;20348;-55
2022/10/02 11:33:49;;;;;;;0.55;0.32;;;23.60;62.00;;;;;;6090668;28;20298;-55
2022/10/02 11:37:08;;;;;;;1.63;0.28;;;23.60;61.90;;;;;;6092601;28;20916;-52
2022/10/02 11:40:25;;;;;;;0.68;0.32;;;23.40;61.40;;;;;;6095005;28;21195;-52
2022/10/02 11:43:47;;;;;;;1.13;0.35;;;23.30;61.20;;;;;;6095949;28;20602;-54
2022/10/02 11:47:11;;;;;;;0.82;0.20;;;23.70;61.10;;;;;;6095190;28;21149;-48
2022/10/02 11:50:39;;;;;;;0.98;0.30;;;23.50;60.70;;;;;;6090248;28;20129;-53
2022/10/02 11:54:00;;;;;;;0.75;0.40;;;23.50;60.90;;;;;;6093525;28;20050;-53
2022/10/02 11:57:23;;;;;;;0.63;0.20;;;23.40;60.30;;;;;;6092874;28;20117;-53
2022/10/02 12:00:51;;;;;;;0.73;0.30;;;23.30;60.00;;;;;;6094376;28;20142;-50
2022/10/02 12:04:03;;;;;;;0.55;0.30;;;23.70;60.00;;;;;;6084237;28;20050;-49
2022/10/02 12:07:18;;;;;;;0.68;0.22;;;23.30;59.70;;;;;;6082797;28;20294;-52
2022/10/02 12:10:30;;;;;;;0.50;0.43;;;23.40;59.50;;;;;;6091113;28;20076;-52
2022/10/02 12:13:53;;;;;;;0.55;0.30;;;23.60;59.40;;;;;;6095742;28;20629;-51
2022/10/02 12:17:07;;;;;;;0.52;0.28;;;23.10;58.90;;;;;;6088390;28;20785;-49
2022/10/02 12:27:11;;;;;;;0.70;0.30;;;23.60;58.80;;;;;;6084581;28;20301;-54
2022/10/02 12:30:17;;;;;;;0.22;0.20;;;23.50;58.80;;;;;;6084594;28;20042;-52
2022/10/02 12:33:31;;;;;;;0.45;0.28;;;23.80;58.90;;;;;;6087925;28;20919;-54
2022/10/02 12:36:48;;;;;;;0.47;0.25;;;23.40;58.40;;;;;;6088845;28;20166;-53
2022/10/02 12:40:00;;;;;;;0.40;0.20;;;23.30;58.30;;;;;;6082006;28;21031;-54
2022/10/02 12:43:37;;;;;;;0.38;0.30;;;23.60;58.40;;;;;;6089406;28;20169;-52
2022/10/02 12:47:06;;;;;;;0.40;0.20;;;23.40;58.10;;;;;;6085368;28;20264;-52
2022/10/02 12:50:22;;;;;;;0.50;0.30;;;23.80;58.30;;;;;;6092246;28;20572;-51
2022/10/02 12:53:53;;;;;;;0.50;0.30;;;23.50;58.10;;;;;;6092432;28;20770;-52
2022/10/02 13:00:44;;;;;;;0.73;0.40;;;23.60;58.10;;;;;;6087046;28;20054;-52
2022/10/02 13:04:18;;;;;;;0.75;0.40;;;23.60;58.10;;;;;;6079550;28;20309;-53
2022/10/02 13:07:49;;;;;;;0.80;0.20;;;23.40;57.90;;;;;;6085810;28;20042;-49
2022/10/02 13:10:59;;;;;;;;;;;23.40;57.80;;;;;;6082658;28;20236;-52
2022/10/02 13:14:20;;;;;;;0.57;0.30;;;23.70;58.20;;;;;;6085959;28;20172;-52
2022/10/02 13:17:34;;;;;;;0.53;0.20;;;23.60;58.10;;;;;;6081450;28;20550;-53
2022/10/02 13:20:41;;;;;;;0.82;0.45;;;23.70;58.10;;;;;;6082149;28;20314;-51
2022/10/02 13:23:52;;;;;;;0.28;0.28;;;23.50;58.10;;;;;;6086579;28;20078;-52
2022/10/02 13:26:59;;;;;;;0.22;0.10;;;23.30;57.90;;;;;;6087613;28;20430;-52
2022/10/02 13:30:09;;;;;;;0.80;0.40;;;23.70;58.10;;;;;;6082050;28;20166;-53
2022/10/02 13:33:27;;;;;;;0.65;0.20;;;23.60;58.00;;;;;;6082559;28;20047;-49
2022/10/02 13:36:44;;;;;;;0.38;0.30;;;23.90;58.20;;;;;;6075901;28;20086;-52
2022/10/02 13:40:01;;;;;;;0.80;0.20;;;23.40;58.00;;;;;;6080642;28;20744;-50
2022/10/02 13:43:21;;;;;;;0.88;0.30;;;23.60;58.10;;;;;;6084761;28;20079;-52
2022/10/02 13:46:35;;;;;;;0.47;0.20;;;23.80;58.10;;;;;;6080333;28;21051;-52
2022/10/02 13:49:53;;;;;;;0.50;0.30;;;23.50;58.10;;;;;;6082382;28;20287;-54
2022/10/02 13:53:10;;;;;;;0.93;0.40;;;23.70;58.10;;;;;;6071276;28;20039;-55
2022/10/02 13:56:26;;;;;;;0.30;0.30;;;23.80;58.10;;;;;;6084681;28;21035;-53
2022/10/02 13:59:41;;;;;;;0.25;0.20;;;23.70;58.10;;;;;;6082844;28;20126;-50
2022/10/02 14:02:54;;;;;;;1.10;0.30;;;23.60;58.10;;;;;;6084729;28;20784;-50
2022/10/02 14:06:06;;;;;;;0.63;0.50;;;23.40;58.00;;;;;;6086151;28;20376;-52
2022/10/02 14:09:24;;;;;;;0.43;0.40;;;23.60;58.10;;;;;;6084598;28;20181;-50
2022/10/02 14:12:35;;;;;;;0.55;0.20;;;23.80;58.30;;;;;;6087615;28;20169;-50
2022/10/02 14:15:50;;;;;;;0.73;0.20;;;23.80;58.30;;;;;;6088663;28;20354;-53
2022/10/02 14:19:18;;;;;;;0.50;0.30;;;23.70;58.30;;;;;;6093652;28;20050;-50
2022/10/02 14:22:34;;;;;;;0.52;0.20;;;23.90;58.50;;;;;;6094289;28;20043;-52
2022/10/02 14:25:50;;;;;;;0.55;0.20;;;23.60;58.40;;;;;;6085142;28;20091;-54
2022/10/02 14:29:11;;;;;;;0.30;0.20;;;23.70;58.60;;;;;;6087267;28;20085;-52
2022/10/02 14:32:21;;;;;;;;;;;23.70;58.70;;;;;;6095400;28;20311;-53
2022/10/02 14:35:33;;;;;;;0.50;0.30;;;23.80;58.80;;;;;;6093122;28;20748;-54
2022/10/02 14:38:44;;;;;;;0.28;0.20;;;23.50;58.80;;;;;;6093516;28;20550;-49
2022/10/02 14:42:04;;;;;;;0.50;0.20;;;23.80;59.10;;;;;;6093305;28;20442;-55
2022/10/02 14:45:20;;;;;;;0.13;0.10;;;23.90;59.50;;;;;;6083653;28;20487;-51
2022/10/02 14:48:43;;;;;;;0.43;0.38;;;23.60;59.60;;;;;;6083318;28;20821;-53
2022/10/02 14:52:03;;;;;;;0.43;0.20;;;23.70;59.90;;;;;;6090318;28;20039;-54
2022/10/02 14:55:15;;;;;;;0.55;0.35;;;23.80;60.20;;;;;;6088800;28;20098;-55
2022/10/02 14:58:43;;;;;;;0.43;0.35;;;24.00;60.50;;;;;;6081279;28;21406;-53
2022/10/02 15:01:59;;;;;;;0.70;0.20;;;23.80;60.80;;;;;;6093275;28;20058;-51
2022/10/02 15:05:15;;;;;;;0.20;0.10;;;23.80;60.90;;;;;;6086963;28;20397;-50
2022/10/02 15:08:24;;;;;;;0.25;0.20;;;23.70;61.00;;;;;;6092572;28;20075;-54
2022/10/02 15:11:50;;;;;;;0.28;0.20;;;24.00;61.30;;;;;;6090418;28;20165;-54
2022/10/02 15:15:06;;;;;;;0.20;0.13;;;23.80;61.40;;;;;;6086988;28;20555;-50
2022/10/02 15:18:19;;;;;;;0.32;0.20;;;23.50;61.40;;;;;;6088468;28;20363;-53
2022/10/02 15:21:28;;;;;;;0.38;0.30;;;23.90;61.80;;;;;;6083910;28;20182;-54
2022/10/02 15:24:32;;;;;;;0.38;0.20;;;23.50;61.70;;;;;;6083701;28;20186;-50
2022/10/02 15:27:44;;;;;;;0.25;0.20;;;23.70;62.00;;;;;;6090309;28;20086;-54
2022/10/02 15:30:51;;;;;;;;;;;23.80;62.20;;;;;;6095454;28;20288;-55
2022/10/02 15:33:59;;;;;;;0.32;0.10;;;23.70;62.20;;;;;;6096429;28;19972;-53
2022/10/02 15:37:15;;;;;;;0.10;0.10;;;24.00;62.40;;;;;;6084737;28;20613;-51
2022/10/02 15:40:25;;;;;;;0.22;0.20;;;23.90;62.70;;;;;;6099813;28;20133;-54
2022/10/02 15:43:38;;;;;;;0.20;0.20;;;23.90;62.70;;;;;;6105338;28;20163;-56
2022/10/02 15:46:51;;;;;;;0.10;0.10;;;23.80;62.80;;;;;;6106286;28;20955;-54
2022/10/02 15:50:08;;;;;;;0.30;0.28;;;23.60;62.90;;;;;;6104979;28;20186;-55
2022/10/02 15:53:31;;;;;;;0.43;0.28;;;23.60;63.00;;;;;;6103125;28;20804;-55
2022/10/02 15:56:50;;;;;;;0.20;0.20;;;23.60;63.00;;;;;;6104733;28;20289;-55
2022/10/02 16:00:02;;;;;;;0.30;0.20;;;23.70;63.20;;;;;;6106088;28;20913;-53
2022/10/02 16:03:25;;;;;;;0.30;0.30;;;23.90;63.40;;;;;;6106077;28;20188;-56
2022/10/02 16:06:49;;;;;;;0.20;0.20;;;23.70;63.40;;;;;;6106093;28;20053;-55
2022/10/02 16:10:01;;;;;;;0.20;0.20;;;23.70;63.50;;;;;;6110696;28;20261;-54
2022/10/02 16:13:22;;;;;;;0.63;0.35;;;23.70;63.50;;;;;;6109237;28;20153;-53
2022/10/02 16:17:00;;;;;;;0.30;0.30;;;23.90;63.70;;;;;;6109109;28;21144;-56
2022/10/02 16:20:21;;;;;;;0.20;0.20;;;23.90;63.70;;;;;;6112156;28;20967;-53
2022/10/02 16:23:38;;;;;;;0.30;0.20;;;23.80;63.70;;;;;;6107775;28;20078;-54
2022/10/02 16:27:08;;;;;;;0.13;0.13;;;23.90;63.80;;;;;;6105967;28;20997;-55
2022/10/02 16:30:12;;;;;;;0.30;0.30;;;23.80;63.80;;;;;;6104355;28;20046;-54
2022/10/02 16:33:19;;;;;;;0.40;0.10;;;23.50;63.60;;;;;;6107944;28;20086;-56
2022/10/02 16:36:30;;;;;;;0.30;0.20;;;23.90;64.00;;;;;;6106212;28;20594;-53
2022/10/02 16:39:44;;;;;;;0.13;0.10;;;24.00;64.00;;;;;;6108922;28;20150;-52
2022/10/02 16:42:56;;;;;;;0.13;0.13;;;23.90;63.90;;;;;;6106860;28;20927;-55
2022/10/02 16:46:05;;;;;;;0.55;0.20;;;23.80;63.80;;;;;;6103664;28;20038;-56
2022/10/02 16:49:18;;;;;;;0.30;0.13;;;23.80;63.80;;;;;;6104142;28;20046;-51
2022/10/02 16:52:25;;;;;;;0.30;0.20;;;23.70;63.70;;;;;;6093298;28;21000;-54
2022/10/02 16:55:32;;;;;;;0.28;0.10;;;23.80;63.70;;;;;;6106705;28;20486;-56
2022/10/02 16:58:44;;;;;;;0.52;0.30;;;23.80;63.70;;;;;;6104085;28;20062;-56
2022/10/02 17:01:49;;;;;;;0.30;0.20;;;23.70;63.60;;;;;;6104212;28;20081;-56
2022/10/02 17:05:23;;;;;;;0.28;0.20;;;23.90;63.70;;;;;;6106936;28;20113;-56
2022/10/02 17:08:30;;;;;;;0.15;0.10;;;24.20;63.90;;;;;;6105115;28;20166;-55